sensor_id;sensor_type;location;lat;lon;timestamp;P1;durP1;ratioP1;P2;durP2;ratioP2
54557;SDS011;40452;50.080;20.040;2023-08-06T05:25:45;14.02;;;6.63;;
54557;SDS011;40452;50.080;20.040;2023-08-06T05:28:13;13.45;;;6.85;;
54557;SDS011;40452;50.080;20.040;2023-08-06T05:30:41;12.88;;;7.15;;
54557;SDS011;40452;50.080;20.040;2023-08-06T05:33:09;11.70;;;7.13;;
54557;SDS011;40452;50.080;20.040;2023-08-06T05:35:35;11.73;;;7.00;;
54557;SDS011;40452;50.080;20.040;2023-08-06T05:38:00;12.40;;;7.07;;
54557;SDS011;40452;50.080;20.040;2023-08-06T05:40:26;13.38;;;7.30;;
54557;SDS011;40452;50.080;20.040;2023-08-06T05:42:53;10.63;;;6.97;;
54557;SDS011;40452;50.080;20.040;2023-08-06T05:45:19;10.38;;;7.18;;
54557;SDS011;40452;50.080;20.040;2023-08-06T05:47:45;11.85;;;6.60;;
54557;SDS011;40452;50.080;20.040;2023-08-06T05:50:10;12.25;;;7.65;;
54557;SDS011;40452;50.080;20.040;2023-08-06T05:52:36;11.88;;;8.40;;
54557;SDS011;40452;50.080;20.040;2023-08-06T05:55:01;13.88;;;7.03;;
54557;SDS011;40452;50.080;20.040;2023-08-06T05:57:27;9.45;;;6.53;;
54557;SDS011;40452;50.080;20.040;2023-08-06T05:59:53;11.18;;;6.78;;
54557;SDS011;40452;50.080;20.040;2023-08-06T06:02:18;13.88;;;6.60;;
54557;SDS011;40452;50.080;20.040;2023-08-06T06:04:44;8.90;;;6.10;;
54557;SDS011;40452;50.080;20.040;2023-08-06T06:07:09;10.93;;;6.97;;
54557;SDS011;40452;50.080;20.040;2023-08-06T06:09:35;8.95;;;6.38;;
54557;SDS011;40452;50.080;20.040;2023-08-06T06:12:01;10.38;;;6.80;;
54557;SDS011;40452;50.080;20.040;2023-08-06T06:14:26;11.57;;;7.25;;
54557;SDS011;40452;50.080;20.040;2023-08-06T06:16:52;8.65;;;6.18;;
54557;SDS011;40452;50.080;20.040;2023-08-06T06:19:18;10.20;;;7.25;;
54557;SDS011;40452;50.080;20.040;2023-08-06T06:21:43;8.45;;;6.10;;
54557;SDS011;40452;50.080;20.040;2023-08-06T06:24:09;8.30;;;6.07;;
54557;SDS011;40452;50.080;20.040;2023-08-06T06:26:34;10.00;;;6.20;;
54557;SDS011;40452;50.080;20.040;2023-08-06T06:29:00;8.73;;;5.85;;
54557;SDS011;40452;50.080;20.040;2023-08-06T06:31:26;8.60;;;6.00;;
54557;SDS011;40452;50.080;20.040;2023-08-06T06:33:51;10.82;;;6.32;;
54557;SDS011;40452;50.080;20.040;2023-08-06T06:36:19;8.32;;;5.85;;
54557;SDS011;40452;50.080;20.040;2023-08-06T06:38:45;8.80;;;5.97;;
54557;SDS011;40452;50.080;20.040;2023-08-06T06:41:11;8.70;;;6.20;;
54557;SDS011;40452;50.080;20.040;2023-08-06T06:43:36;8.15;;;5.82;;
54557;SDS011;40452;50.080;20.040;2023-08-06T06:46:03;9.43;;;6.10;;
54557;SDS011;40452;50.080;20.040;2023-08-06T06:48:31;9.10;;;6.68;;
54557;SDS011;40452;50.080;20.040;2023-08-06T06:50:57;12.02;;;6.60;;
54557;SDS011;40452;50.080;20.040;2023-08-06T06:53:23;9.32;;;5.93;;
54557;SDS011;40452;50.080;20.040;2023-08-06T06:55:55;10.82;;;5.90;;
54557;SDS011;40452;50.080;20.040;2023-08-06T06:58:27;9.52;;;6.25;;
54557;SDS011;40452;50.080;20.040;2023-08-06T07:00:52;11.75;;;6.40;;
54557;SDS011;40452;50.080;20.040;2023-08-06T07:03:19;17.63;;;6.85;;
54557;SDS011;40452;50.080;20.040;2023-08-06T07:05:45;11.30;;;5.88;;
54557;SDS011;40452;50.080;20.040;2023-08-06T07:08:11;14.50;;;7.85;;
54557;SDS011;40452;50.080;20.040;2023-08-06T07:10:37;10.80;;;7.60;;
54557;SDS011;40452;50.080;20.040;2023-08-06T07:13:02;10.90;;;7.10;;
54557;SDS011;40452;50.080;20.040;2023-08-06T07:15:28;17.23;;;7.30;;
54557;SDS011;40452;50.080;20.040;2023-08-06T07:17:54;14.35;;;6.85;;
54557;SDS011;40452;50.080;20.040;2023-08-06T07:20:20;14.77;;;7.45;;
54557;SDS011;40452;50.080;20.040;2023-08-06T07:22:45;11.30;;;7.07;;
54557;SDS011;40452;50.080;20.040;2023-08-06T07:25:11;13.27;;;6.85;;
54557;SDS011;40452;50.080;20.040;2023-08-06T07:27:37;12.38;;;6.95;;
54557;SDS011;40452;50.080;20.040;2023-08-06T07:30:02;10.05;;;7.03;;
54557;SDS011;40452;50.080;20.040;2023-08-06T07:32:30;11.52;;;6.80;;
54557;SDS011;40452;50.080;20.040;2023-08-06T07:34:56;13.80;;;6.93;;
54557;SDS011;40452;50.080;20.040;2023-08-06T07:37:25;11.93;;;7.43;;
54557;SDS011;40452;50.080;20.040;2023-08-06T07:39:55;12.02;;;7.40;;
54557;SDS011;40452;50.080;20.040;2023-08-06T07:42:20;11.82;;;7.25;;
54557;SDS011;40452;50.080;20.040;2023-08-06T07:44:51;11.65;;;6.70;;
54557;SDS011;40452;50.080;20.040;2023-08-06T07:47:20;9.30;;;6.50;;
54557;SDS011;40452;50.080;20.040;2023-08-06T07:49:46;9.85;;;6.53;;
54557;SDS011;40452;50.080;20.040;2023-08-06T07:52:11;11.93;;;6.05;;
54557;SDS011;40452;50.080;20.040;2023-08-06T07:54:37;10.35;;;6.40;;
54557;SDS011;40452;50.080;20.040;2023-08-06T07:57:02;9.45;;;6.15;;
54557;SDS011;40452;50.080;20.040;2023-08-06T07:59:28;12.57;;;6.82;;
54557;SDS011;40452;50.080;20.040;2023-08-06T08:01:54;8.43;;;5.88;;
54557;SDS011;40452;50.080;20.040;2023-08-06T08:04:19;7.32;;;4.50;;
54557;SDS011;40452;50.080;20.040;2023-08-06T08:06:46;8.43;;;4.75;;
54557;SDS011;40452;50.080;20.040;2023-08-06T08:09:12;10.15;;;4.53;;
54557;SDS011;40452;50.080;20.040;2023-08-06T08:11:38;7.07;;;4.68;;
54557;SDS011;40452;50.080;20.040;2023-08-06T08:14:04;8.65;;;4.35;;
54557;SDS011;40452;50.080;20.040;2023-08-06T08:16:30;7.35;;;4.47;;
54557;SDS011;40452;50.080;20.040;2023-08-06T08:18:55;5.22;;;3.95;;
54557;SDS011;40452;50.080;20.040;2023-08-06T08:21:21;5.68;;;3.60;;
54557;SDS011;40452;50.080;20.040;2023-08-06T08:23:49;7.15;;;3.13;;
54557;SDS011;40452;50.080;20.040;2023-08-06T08:26:15;17.67;;;3.90;;
54557;SDS011;40452;50.080;20.040;2023-08-06T08:28:40;5.32;;;2.75;;
54557;SDS011;40452;50.080;20.040;2023-08-06T08:31:09;4.85;;;3.10;;
54557;SDS011;40452;50.080;20.040;2023-08-06T08:33:36;5.97;;;3.30;;
54557;SDS011;40452;50.080;20.040;2023-08-06T08:36:02;3.45;;;2.10;;
54557;SDS011;40452;50.080;20.040;2023-08-06T08:38:28;3.20;;;2.13;;
54557;SDS011;40452;50.080;20.040;2023-08-06T08:40:54;5.57;;;2.00;;
54557;SDS011;40452;50.080;20.040;2023-08-06T08:43:23;6.63;;;2.22;;
54557;SDS011;40452;50.080;20.040;2023-08-06T08:45:49;3.25;;;1.73;;
54557;SDS011;40452;50.080;20.040;2023-08-06T08:48:16;4.25;;;1.75;;
54557;SDS011;40452;50.080;20.040;2023-08-06T08:50:44;4.53;;;1.73;;
54557;SDS011;40452;50.080;20.040;2023-08-06T08:53:11;1.45;;;1.15;;
54557;SDS011;40452;50.080;20.040;2023-08-06T08:55:37;2.42;;;1.40;;
54557;SDS011;40452;50.080;20.040;2023-08-06T08:58:04;1.77;;;1.00;;
54557;SDS011;40452;50.080;20.040;2023-08-06T09:00:30;1.65;;;1.00;;
54557;SDS011;40452;50.080;20.040;2023-08-06T09:02:56;1.52;;;0.90;;
54557;SDS011;40452;50.080;20.040;2023-08-06T09:05:23;1.50;;;0.95;;
54557;SDS011;40452;50.080;20.040;2023-08-06T09:07:53;2.03;;;1.05;;
54557;SDS011;40452;50.080;20.040;2023-08-06T09:10:20;2.20;;;1.00;;
54557;SDS011;40452;50.080;20.040;2023-08-06T09:12:50;1.73;;;1.05;;
54557;SDS011;40452;50.080;20.040;2023-08-06T09:15:18;2.35;;;1.00;;
54557;SDS011;40452;50.080;20.040;2023-08-06T09:17:45;2.03;;;1.00;;
54557;SDS011;40452;50.080;20.040;2023-08-06T09:20:13;1.77;;;0.93;;
54557;SDS011;40452;50.080;20.040;2023-08-06T09:22:40;2.92;;;0.77;;
54557;SDS011;40452;50.080;20.040;2023-08-06T09:25:06;2.05;;;0.60;;
54557;SDS011;40452;50.080;20.040;2023-08-06T09:27:36;2.58;;;0.82;;
54557;SDS011;40452;50.080;20.040;2023-08-06T09:30:03;0.82;;;0.50;;
54557;SDS011;40452;50.080;20.040;2023-08-06T09:35:24;1.65;;;0.70;;
54557;SDS011;40452;50.080;20.040;2023-08-06T09:37:50;1.00;;;0.55;;
54557;SDS011;40452;50.080;20.040;2023-08-06T09:40:31;0.95;;;0.63;;
54557;SDS011;40452;50.080;20.040;2023-08-06T09:42:57;1.75;;;0.52;;
54557;SDS011;40452;50.080;20.040;2023-08-06T09:45:28;2.88;;;0.50;;
54557;SDS011;40452;50.080;20.040;2023-08-06T09:48:04;1.23;;;0.80;;
54557;SDS011;40452;50.080;20.040;2023-08-06T09:50:32;1.95;;;0.70;;
54557;SDS011;40452;50.080;20.040;2023-08-06T09:53:01;1.13;;;0.50;;
54557;SDS011;40452;50.080;20.040;2023-08-06T09:55:26;2.58;;;0.40;;
54557;SDS011;40452;50.080;20.040;2023-08-06T09:57:52;1.50;;;0.80;;
54557;SDS011;40452;50.080;20.040;2023-08-06T10:00:18;3.97;;;1.58;;
54557;SDS011;40452;50.080;20.040;2023-08-06T10:02:45;2.97;;;0.60;;
54557;SDS011;40452;50.080;20.040;2023-08-06T10:05:11;0.80;;;0.45;;
54557;SDS011;40452;50.080;20.040;2023-08-06T10:07:37;2.15;;;0.60;;
54557;SDS011;40452;50.080;20.040;2023-08-06T10:10:06;1.52;;;0.50;;
54557;SDS011;40452;50.080;20.040;2023-08-06T10:12:46;0.73;;;0.50;;
54557;SDS011;40452;50.080;20.040;2023-08-06T10:15:14;0.55;;;0.30;;
54557;SDS011;40452;50.080;20.040;2023-08-06T10:17:42;0.77;;;0.32;;
54557;SDS011;40452;50.080;20.040;2023-08-06T10:20:10;0.43;;;0.38;;
54557;SDS011;40452;50.080;20.040;2023-08-06T10:22:38;1.13;;;0.50;;
54557;SDS011;40452;50.080;20.040;2023-08-06T10:25:09;1.55;;;0.50;;
54557;SDS011;40452;50.080;20.040;2023-08-06T10:27:35;1.85;;;0.50;;
54557;SDS011;40452;50.080;20.040;2023-08-06T10:30:26;0.70;;;0.40;;
54557;SDS011;40452;50.080;20.040;2023-08-06T10:33:00;1.00;;;0.50;;
54557;SDS011;40452;50.080;20.040;2023-08-06T10:35:43;1.50;;;0.32;;
54557;SDS011;40452;50.080;20.040;2023-08-06T10:38:16;1.50;;;0.40;;
54557;SDS011;40452;50.080;20.040;2023-08-06T10:40:50;0.80;;;0.50;;
54557;SDS011;40452;50.080;20.040;2023-08-06T10:43:39;1.65;;;0.60;;
54557;SDS011;40452;50.080;20.040;2023-08-06T10:46:49;2.20;;;0.50;;
54557;SDS011;40452;50.080;20.040;2023-08-06T10:48:53;0.60;;;0.40;;
54557;SDS011;40452;50.080;20.040;2023-08-06T10:51:19;3.33;;;0.57;;
54557;SDS011;40452;50.080;20.040;2023-08-06T10:53:45;0.82;;;0.50;;
54557;SDS011;40452;50.080;20.040;2023-08-06T10:56:12;0.70;;;0.50;;
54557;SDS011;40452;50.080;20.040;2023-08-06T10:58:39;0.45;;;0.40;;
54557;SDS011;40452;50.080;20.040;2023-08-06T11:01:05;0.52;;;0.52;;
54557;SDS011;40452;50.080;20.040;2023-08-06T11:03:31;1.20;;;0.40;;
54557;SDS011;40452;50.080;20.040;2023-08-06T11:05:58;6.15;;;5.03;;
54557;SDS011;40452;50.080;20.040;2023-08-06T11:08:27;7.72;;;5.88;;
54557;SDS011;40452;50.080;20.040;2023-08-06T11:10:53;10.30;;;7.03;;
54557;SDS011;40452;50.080;20.040;2023-08-06T11:13:19;7.05;;;4.13;;
54557;SDS011;40452;50.080;20.040;2023-08-06T11:15:45;6.50;;;4.07;;
54557;SDS011;40452;50.080;20.040;2023-08-06T11:18:11;14.23;;;9.60;;
54557;SDS011;40452;50.080;20.040;2023-08-06T11:20:38;12.55;;;9.77;;
54557;SDS011;40452;50.080;20.040;2023-08-06T11:23:04;7.22;;;5.25;;
54557;SDS011;40452;50.080;20.040;2023-08-06T11:25:30;8.02;;;5.03;;
54557;SDS011;40452;50.080;20.040;2023-08-06T11:27:56;5.57;;;2.70;;
54557;SDS011;40452;50.080;20.040;2023-08-06T11:30:22;6.43;;;2.88;;
54557;SDS011;40452;50.080;20.040;2023-08-06T11:32:47;4.22;;;1.48;;
54557;SDS011;40452;50.080;20.040;2023-08-06T11:35:14;2.90;;;1.60;;
54557;SDS011;40452;50.080;20.040;2023-08-06T11:37:43;1.98;;;1.00;;
54557;SDS011;40452;50.080;20.040;2023-08-06T11:40:13;2.85;;;1.17;;
54557;SDS011;40452;50.080;20.040;2023-08-06T11:42:40;2.75;;;1.45;;
54557;SDS011;40452;50.080;20.040;2023-08-06T11:45:07;2.75;;;0.77;;
54557;SDS011;40452;50.080;20.040;2023-08-06T11:47:37;0.98;;;0.50;;
54557;SDS011;40452;50.080;20.040;2023-08-06T11:50:05;1.73;;;0.80;;
54557;SDS011;40452;50.080;20.040;2023-08-06T11:52:31;1.30;;;0.70;;
54557;SDS011;40452;50.080;20.040;2023-08-06T11:55:03;1.05;;;0.63;;
54557;SDS011;40452;50.080;20.040;2023-08-06T11:57:35;4.05;;;0.80;;
54557;SDS011;40452;50.080;20.040;2023-08-06T12:00:09;1.35;;;0.60;;
54557;SDS011;40452;50.080;20.040;2023-08-06T12:02:38;1.83;;;0.85;;
54557;SDS011;40452;50.080;20.040;2023-08-06T12:07:36;1.65;;;0.60;;
54557;SDS011;40452;50.080;20.040;2023-08-06T12:10:03;1.70;;;0.70;;
54557;SDS011;40452;50.080;20.040;2023-08-06T12:12:30;2.30;;;0.70;;
54557;SDS011;40452;50.080;20.040;2023-08-06T12:14:55;1.55;;;0.60;;
54557;SDS011;40452;50.080;20.040;2023-08-06T12:17:22;2.42;;;0.80;;
54557;SDS011;40452;50.080;20.040;2023-08-06T12:19:50;1.20;;;0.63;;
54557;SDS011;40452;50.080;20.040;2023-08-06T12:22:16;1.40;;;0.60;;
54557;SDS011;40452;50.080;20.040;2023-08-06T12:24:42;5.07;;;0.73;;
54557;SDS011;40452;50.080;20.040;2023-08-06T12:27:08;1.17;;;0.60;;
54557;SDS011;40452;50.080;20.040;2023-08-06T12:29:35;1.30;;;0.57;;
54557;SDS011;40452;50.080;20.040;2023-08-06T12:32:02;1.38;;;0.40;;
54557;SDS011;40452;50.080;20.040;2023-08-06T12:34:28;0.50;;;0.30;;
54557;SDS011;40452;50.080;20.040;2023-08-06T12:36:54;0.85;;;0.30;;
54557;SDS011;40452;50.080;20.040;2023-08-06T12:39:20;1.35;;;0.40;;
54557;SDS011;40452;50.080;20.040;2023-08-06T12:41:46;1.13;;;0.30;;
54557;SDS011;40452;50.080;20.040;2023-08-06T12:44:12;0.70;;;0.30;;
54557;SDS011;40452;50.080;20.040;2023-08-06T12:46:38;0.73;;;0.30;;
54557;SDS011;40452;50.080;20.040;2023-08-06T12:49:04;2.53;;;0.47;;
54557;SDS011;40452;50.080;20.040;2023-08-06T12:51:30;1.20;;;0.50;;
54557;SDS011;40452;50.080;20.040;2023-08-06T12:53:58;0.80;;;0.40;;
54557;SDS011;40452;50.080;20.040;2023-08-06T12:56:24;0.85;;;0.50;;
54557;SDS011;40452;50.080;20.040;2023-08-06T12:58:50;1.85;;;0.50;;
54557;SDS011;40452;50.080;20.040;2023-08-06T13:01:16;3.63;;;0.60;;
54557;SDS011;40452;50.080;20.040;2023-08-06T13:03:42;0.60;;;0.40;;
54557;SDS011;40452;50.080;20.040;2023-08-06T13:06:08;0.95;;;0.60;;
54557;SDS011;40452;50.080;20.040;2023-08-06T13:08:34;1.05;;;0.60;;
54557;SDS011;40452;50.080;20.040;2023-08-06T13:11:01;1.02;;;0.50;;
54557;SDS011;40452;50.080;20.040;2023-08-06T13:13:27;0.60;;;0.50;;
54557;SDS011;40452;50.080;20.040;2023-08-06T13:15:53;1.15;;;0.57;;
54557;SDS011;40452;50.080;20.040;2023-08-06T13:18:19;1.10;;;0.60;;
54557;SDS011;40452;50.080;20.040;2023-08-06T13:20:45;0.75;;;0.50;;
54557;SDS011;40452;50.080;20.040;2023-08-06T13:23:12;1.05;;;0.60;;
54557;SDS011;40452;50.080;20.040;2023-08-06T13:25:40;2.42;;;0.60;;
54557;SDS011;40452;50.080;20.040;2023-08-06T13:28:06;1.15;;;0.43;;
54557;SDS011;40452;50.080;20.040;2023-08-06T13:30:32;0.77;;;0.55;;
54557;SDS011;40452;50.080;20.040;2023-08-06T13:33:00;0.75;;;0.50;;
54557;SDS011;40452;50.080;20.040;2023-08-06T13:35:26;0.73;;;0.50;;
54557;SDS011;40452;50.080;20.040;2023-08-06T13:37:52;0.68;;;0.45;;
54557;SDS011;40452;50.080;20.040;2023-08-06T13:40:19;1.98;;;0.60;;
54557;SDS011;40452;50.080;20.040;2023-08-06T13:42:45;0.77;;;0.43;;
54557;SDS011;40452;50.080;20.040;2023-08-06T13:45:11;0.90;;;0.60;;
54557;SDS011;40452;50.080;20.040;2023-08-06T13:47:37;1.10;;;0.63;;
54557;SDS011;40452;50.080;20.040;2023-08-06T13:50:03;0.88;;;0.57;;
54557;SDS011;40452;50.080;20.040;2023-08-06T13:52:29;1.20;;;0.63;;
54557;SDS011;40452;50.080;20.040;2023-08-06T13:54:55;1.58;;;0.60;;
54557;SDS011;40452;50.080;20.040;2023-08-06T13:57:21;2.47;;;0.70;;
54557;SDS011;40452;50.080;20.040;2023-08-06T13:59:47;2.22;;;0.70;;
54557;SDS011;40452;50.080;20.040;2023-08-06T14:02:13;4.95;;;0.90;;
54557;SDS011;40452;50.080;20.040;2023-08-06T14:04:39;5.70;;;0.85;;
54557;SDS011;40452;50.080;20.040;2023-08-06T14:07:05;6.13;;;1.00;;
54557;SDS011;40452;50.080;20.040;2023-08-06T14:09:31;3.83;;;0.90;;
54557;SDS011;40452;50.080;20.040;2023-08-06T14:11:59;5.68;;;1.23;;
54557;SDS011;40452;50.080;20.040;2023-08-06T14:14:25;5.50;;;1.25;;
54557;SDS011;40452;50.080;20.040;2023-08-06T14:16:52;4.68;;;0.80;;
54557;SDS011;40452;50.080;20.040;2023-08-06T14:19:19;6.65;;;1.13;;
54557;SDS011;40452;50.080;20.040;2023-08-06T14:21:45;7.90;;;1.33;;
54557;SDS011;40452;50.080;20.040;2023-08-06T14:24:11;3.47;;;1.00;;
54557;SDS011;40452;50.080;20.040;2023-08-06T14:26:37;7.20;;;1.13;;
54557;SDS011;40452;50.080;20.040;2023-08-06T14:29:03;5.72;;;1.00;;
54557;SDS011;40452;50.080;20.040;2023-08-06T14:31:29;2.78;;;1.10;;
54557;SDS011;40452;50.080;20.040;2023-08-06T14:33:56;4.78;;;1.15;;
54557;SDS011;40452;50.080;20.040;2023-08-06T14:36:22;3.47;;;1.00;;
54557;SDS011;40452;50.080;20.040;2023-08-06T14:38:48;3.97;;;1.08;;
54557;SDS011;40452;50.080;20.040;2023-08-06T14:41:14;5.18;;;1.05;;
54557;SDS011;40452;50.080;20.040;2023-08-06T14:43:40;1.88;;;0.90;;
54557;SDS011;40452;50.080;20.040;2023-08-06T14:46:06;1.70;;;0.70;;
54557;SDS011;40452;50.080;20.040;2023-08-06T14:48:32;0.77;;;0.60;;
54557;SDS011;40452;50.080;20.040;2023-08-06T14:50:58;1.42;;;0.80;;
54557;SDS011;40452;50.080;20.040;2023-08-06T14:53:24;1.95;;;0.70;;
54557;SDS011;40452;50.080;20.040;2023-08-06T14:55:50;4.40;;;0.90;;
54557;SDS011;40452;50.080;20.040;2023-08-06T14:58:16;2.80;;;0.70;;
54557;SDS011;40452;50.080;20.040;2023-08-06T15:00:42;1.10;;;0.60;;
54557;SDS011;40452;50.080;20.040;2023-08-06T15:03:08;1.10;;;0.60;;
54557;SDS011;40452;50.080;20.040;2023-08-06T15:05:34;1.70;;;0.75;;
54557;SDS011;40452;50.080;20.040;2023-08-06T15:08:00;1.45;;;0.50;;
54557;SDS011;40452;50.080;20.040;2023-08-06T15:10:26;1.05;;;0.77;;
54557;SDS011;40452;50.080;20.040;2023-08-06T15:12:52;1.77;;;0.57;;
54557;SDS011;40452;50.080;20.040;2023-08-06T15:15:18;1.52;;;0.70;;
54557;SDS011;40452;50.080;20.040;2023-08-06T15:17:44;0.98;;;0.50;;
54557;SDS011;40452;50.080;20.040;2023-08-06T15:20:10;2.95;;;0.70;;
54557;SDS011;40452;50.080;20.040;2023-08-06T15:22:36;2.10;;;0.50;;
54557;SDS011;40452;50.080;20.040;2023-08-06T15:25:02;0.82;;;0.60;;
54557;SDS011;40452;50.080;20.040;2023-08-06T15:27:29;1.25;;;0.50;;
54557;SDS011;40452;50.080;20.040;2023-08-06T15:29:55;5.22;;;0.52;;
54557;SDS011;40452;50.080;20.040;2023-08-06T15:32:21;1.02;;;0.60;;
54557;SDS011;40452;50.080;20.040;2023-08-06T15:34:48;1.42;;;0.52;;
54557;SDS011;40452;50.080;20.040;2023-08-06T15:37:14;1.48;;;0.40;;
54557;SDS011;40452;50.080;20.040;2023-08-06T15:39:40;0.93;;;0.52;;
54557;SDS011;40452;50.080;20.040;2023-08-06T15:42:06;1.45;;;0.60;;
54557;SDS011;40452;50.080;20.040;2023-08-06T15:44:33;3.40;;;0.63;;
54557;SDS011;40452;50.080;20.040;2023-08-06T15:46:59;0.90;;;0.50;;
54557;SDS011;40452;50.080;20.040;2023-08-06T15:49:25;3.03;;;0.65;;
54557;SDS011;40452;50.080;20.040;2023-08-06T15:51:51;1.35;;;0.70;;
54557;SDS011;40452;50.080;20.040;2023-08-06T15:54:20;1.00;;;0.52;;
54557;SDS011;40452;50.080;20.040;2023-08-06T15:57:00;4.78;;;0.50;;
54557;SDS011;40452;50.080;20.040;2023-08-06T15:59:30;2.78;;;0.60;;
54557;SDS011;40452;50.080;20.040;2023-08-06T16:01:57;3.75;;;0.73;;
54557;SDS011;40452;50.080;20.040;2023-08-06T16:04:23;0.88;;;0.50;;
54557;SDS011;40452;50.080;20.040;2023-08-06T16:06:50;1.15;;;0.50;;
54557;SDS011;40452;50.080;20.040;2023-08-06T16:09:16;0.70;;;0.45;;
54557;SDS011;40452;50.080;20.040;2023-08-06T16:11:43;0.60;;;0.50;;
54557;SDS011;40452;50.080;20.040;2023-08-06T16:14:09;0.70;;;0.50;;
54557;SDS011;40452;50.080;20.040;2023-08-06T16:16:35;1.10;;;0.60;;
54557;SDS011;40452;50.080;20.040;2023-08-06T16:19:01;0.70;;;0.50;;
54557;SDS011;40452;50.080;20.040;2023-08-06T16:21:28;1.35;;;0.70;;
54557;SDS011;40452;50.080;20.040;2023-08-06T16:23:54;1.67;;;0.68;;
54557;SDS011;40452;50.080;20.040;2023-08-06T16:26:20;1.88;;;0.63;;
54557;SDS011;40452;50.080;20.040;2023-08-06T16:28:46;2.40;;;0.68;;
54557;SDS011;40452;50.080;20.040;2023-08-06T16:31:12;2.67;;;0.70;;
54557;SDS011;40452;50.080;20.040;2023-08-06T16:33:38;6.32;;;1.23;;
54557;SDS011;40452;50.080;20.040;2023-08-06T16:36:04;4.72;;;0.90;;
54557;SDS011;40452;50.080;20.040;2023-08-06T16:38:30;9.40;;;0.93;;
54557;SDS011;40452;50.080;20.040;2023-08-06T16:40:57;7.85;;;1.25;;
54557;SDS011;40452;50.080;20.040;2023-08-06T16:43:24;1.77;;;0.90;;
54557;SDS011;40452;50.080;20.040;2023-08-06T16:45:53;2.42;;;0.80;;
54557;SDS011;40452;50.080;20.040;2023-08-06T16:48:19;5.95;;;0.82;;
54557;SDS011;40452;50.080;20.040;2023-08-06T16:50:54;2.90;;;1.10;;
54557;SDS011;40452;50.080;20.040;2023-08-06T16:53:21;3.50;;;0.85;;
54557;SDS011;40452;50.080;20.040;2023-08-06T16:55:47;4.63;;;1.20;;
54557;SDS011;40452;50.080;20.040;2023-08-06T16:58:14;2.42;;;0.90;;
54557;SDS011;40452;50.080;20.040;2023-08-06T17:00:40;2.97;;;0.80;;
54557;SDS011;40452;50.080;20.040;2023-08-06T17:03:05;2.90;;;0.90;;
54557;SDS011;40452;50.080;20.040;2023-08-06T17:05:31;1.55;;;0.88;;
54557;SDS011;40452;50.080;20.040;2023-08-06T17:07:57;1.10;;;0.70;;
54557;SDS011;40452;50.080;20.040;2023-08-06T17:10:23;1.13;;;0.82;;
54557;SDS011;40452;50.080;20.040;2023-08-06T17:12:49;2.58;;;0.90;;
54557;SDS011;40452;50.080;20.040;2023-08-06T17:15:18;2.15;;;1.08;;
54557;SDS011;40452;50.080;20.040;2023-08-06T17:17:46;1.92;;;0.70;;
54557;SDS011;40452;50.080;20.040;2023-08-06T17:20:12;3.70;;;0.90;;
54557;SDS011;40452;50.080;20.040;2023-08-06T17:22:38;1.35;;;0.73;;
54557;SDS011;40452;50.080;20.040;2023-08-06T17:25:04;1.88;;;0.90;;
54557;SDS011;40452;50.080;20.040;2023-08-06T17:27:30;4.53;;;0.75;;
54557;SDS011;40452;50.080;20.040;2023-08-06T17:29:56;2.72;;;0.75;;
54557;SDS011;40452;50.080;20.040;2023-08-06T17:32:22;1.42;;;0.63;;
54557;SDS011;40452;50.080;20.040;2023-08-06T17:34:48;1.65;;;0.90;;
54557;SDS011;40452;50.080;20.040;2023-08-06T17:37:14;3.83;;;0.93;;
54557;SDS011;40452;50.080;20.040;2023-08-06T17:39:40;2.13;;;1.02;;
54557;SDS011;40452;50.080;20.040;2023-08-06T17:42:06;1.67;;;0.77;;
54557;SDS011;40452;50.080;20.040;2023-08-06T17:44:36;4.35;;;1.42;;
54557;SDS011;40452;50.080;20.040;2023-08-06T17:47:02;3.15;;;0.73;;
54557;SDS011;40452;50.080;20.040;2023-08-06T17:49:28;0.77;;;0.60;;
54557;SDS011;40452;50.080;20.040;2023-08-06T17:51:54;1.70;;;0.70;;
54557;SDS011;40452;50.080;20.040;2023-08-06T17:54:21;1.20;;;0.73;;
54557;SDS011;40452;50.080;20.040;2023-08-06T17:56:47;5.38;;;0.88;;
54557;SDS011;40452;50.080;20.040;2023-08-06T17:59:13;2.58;;;0.90;;
54557;SDS011;40452;50.080;20.040;2023-08-06T18:01:39;5.07;;;0.75;;
54557;SDS011;40452;50.080;20.040;2023-08-06T18:04:05;2.90;;;0.77;;
54557;SDS011;40452;50.080;20.040;2023-08-06T18:06:30;2.20;;;0.80;;
54557;SDS011;40452;50.080;20.040;2023-08-06T18:08:56;1.30;;;0.70;;
54557;SDS011;40452;50.080;20.040;2023-08-06T18:11:22;1.13;;;0.50;;
54557;SDS011;40452;50.080;20.040;2023-08-06T18:13:48;1.08;;;0.80;;
54557;SDS011;40452;50.080;20.040;2023-08-06T18:16:15;1.13;;;0.80;;
54557;SDS011;40452;50.080;20.040;2023-08-06T18:18:41;2.03;;;0.80;;
54557;SDS011;40452;50.080;20.040;2023-08-06T18:21:07;3.65;;;0.73;;
54557;SDS011;40452;50.080;20.040;2023-08-06T18:23:33;1.88;;;0.70;;
54557;SDS011;40452;50.080;20.040;2023-08-06T18:25:59;0.85;;;0.52;;
54557;SDS011;40452;50.080;20.040;2023-08-06T18:28:25;1.33;;;0.65;;
54557;SDS011;40452;50.080;20.040;2023-08-06T18:30:51;1.17;;;0.60;;
54557;SDS011;40452;50.080;20.040;2023-08-06T18:33:17;1.92;;;0.65;;
54557;SDS011;40452;50.080;20.040;2023-08-06T18:35:43;0.77;;;0.60;;
54557;SDS011;40452;50.080;20.040;2023-08-06T18:38:09;1.48;;;0.75;;
54557;SDS011;40452;50.080;20.040;2023-08-06T18:40:35;0.70;;;0.50;;
54557;SDS011;40452;50.080;20.040;2023-08-06T18:43:01;1.48;;;0.70;;
54557;SDS011;40452;50.080;20.040;2023-08-06T18:45:27;1.05;;;0.68;;
54557;SDS011;40452;50.080;20.040;2023-08-06T18:47:53;1.02;;;0.60;;
54557;SDS011;40452;50.080;20.040;2023-08-06T18:50:19;0.77;;;0.55;;
54557;SDS011;40452;50.080;20.040;2023-08-06T18:52:45;0.60;;;0.43;;
54557;SDS011;40452;50.080;20.040;2023-08-06T18:55:14;0.70;;;0.43;;
54557;SDS011;40452;50.080;20.040;2023-08-06T18:57:40;0.70;;;0.50;;
54557;SDS011;40452;50.080;20.040;2023-08-06T19:00:06;1.17;;;0.50;;
54557;SDS011;40452;50.080;20.040;2023-08-06T19:02:32;1.75;;;0.80;;
54557;SDS011;40452;50.080;20.040;2023-08-06T19:04:58;1.20;;;0.60;;
54557;SDS011;40452;50.080;20.040;2023-08-06T19:07:24;2.00;;;0.60;;
54557;SDS011;40452;50.080;20.040;2023-08-06T19:09:50;0.57;;;0.47;;
54557;SDS011;40452;50.080;20.040;2023-08-06T19:12:16;0.80;;;0.43;;
